Aktuální počasí v Česku a ve světě - METAR

Seznam meteostanic umístěných nejčasteji na letišti v ČR a ve světě

Vyhledat místa podle abecedy:
A B C D E F G H I J K L M N O P Q R S T U V W X Y Z

Filtrovat:

ID stanice:
a/nebo
Název místa (fulltext):
 
Místo (ID)Naposledy načteno 
Náměšť nad Oslavou (Namest n/O) 16.07.2020 13:00 UTC Zobrazit data
Místo: Náměšť nad Oslavou
Teplota: 17 °C (pocitová: 14.6 °C)
Vítr: 5 m/s z(e) 310°
Počasí: zataženo
Dohlednost: 25 km
Zákl. oblačnosti: 3/8 690 m;5/8 2400 m
Vlhkost: 68%
N'Djamena (FTTJ) 16.07.2020 14:00 UTC Zobrazit METAR
FTTJ 161400Z 10006KT 100V200 9999 SCT033 32/21 Q1011 NOSIG
Nairobi (HKJK) 16.07.2020 13:00 UTC Zobrazit METAR
HKJK 161300Z 00000KT 9999 BKN018 20/14
Nantes/ Atlantique (LFRS) 16.07.2020 14:00 UTC Zobrazit METAR
LFRS 161400Z AUTO 34005KT 300V040 9999 SCT036 OVC047 23/14 Q1022 NOSIG
Nassau (MYNN) 16.07.2020 14:00 UTC Zobrazit METAR
MYNN 161400Z 11008KT 080V140 9999 VCSH BKN025 BKN200 30/24 A3007 RMK VCSH W
Nauru (ANAU) Zatím nenačteno  
Nausori (NFNA) 16.07.2020 13:00 UTC Zobrazit METAR
NFNA 161300Z 35004KT 9999 FEW020 SCT045 BKN300 22/22 Q1011
New York (KNYC) 16.07.2020 13:51 UTC Zobrazit METAR
KNYC 161351Z AUTO 10007KT 060V150 10SM OVC030 23/16 A3033 RMK AO2 SLP260 T02330161 $
Newcastle (EGNT) 16.07.2020 13:50 UTC Zobrazit METAR
EGNT 161350Z 28016KT 9999 SCT016 20/14 Q1018
Niamey (DRRN) 16.07.2020 14:00 UTC Zobrazit METAR
DRRN 161400Z 27006KT 170V320 9999 SCT023 32/20 Q1011 NOSIG
Nice/ Cote D'Azur (LFMN) 16.07.2020 14:00 UTC Zobrazit METAR
LFMN 161400Z 11007KT 9999 FEW020 26/20 Q1014 NOSIG
Niue Island (NIUE) 16.07.2020 03:00 UTC Zobrazit METAR
NIUE 160300Z 11012KT 9999 FEW018 SCT030 BKN300 25/18 Q1013
Nizhny Novgorod (UWGG) 13.10.2017 15:00 UTC Zobrazit METAR
UWGG 131500Z 9000 NSC 10/07 Q1006 R18R/290050 NOSIG RMK QFE747
North Caicos I. (MBNC) Zatím nenačteno  
Nouakchott (GQNN) 23.06.2016 11:00 UTC Zobrazit METAR
GQNN 231100Z 23009KT 180V250 7000 BKN010 25/18 Q1013 NOSIG
Noumea (NWWM) Zatím nenačteno  
Nuku'alofa (NFTF) 16.07.2020 14:00 UTC Zobrazit METAR
NFTF 161400Z 07004KT 9999 FEW014 BKN040 23/21 Q1014
Reklama

Počasí na Váš email

Emaily jsou bez reklamy a bez spamu



Odhlásit newsletter



❤️ Podpořte nás

Napište o nás recenzi na Google
Ohodnoťte nás na Firmy.cz

Pošlete nám finanční podporu - firma nedostala žádné dotace ani podporu z Coronaviru, zato letos platíme vyšší daně.
Další české internetové stránky (nejen) o počasí najdete v katalogu TOPlist - weby o počasí nebo vyhledejte na internetu, co jste tu na 🌞 Slunečnu ⛅ zatím nenašli:
⬆️ Posunout nahoru ⬆️
Reklama